sensor_id;sensor_type;location;lat;lon;timestamp;pressure;altitude;pressure_sealevel;temperature;humidity
30598;BME280;17365;48.878;8.334;2023-04-21T00:02:15;99717.69;;;4.14;93.89
30598;BME280;17365;48.878;8.334;2023-04-21T00:04:41;99710.34;;;4.31;93.83
30598;BME280;17365;48.878;8.334;2023-04-21T00:07:09;99706.47;;;4.09;93.83
30598;BME280;17365;48.878;8.334;2023-04-21T00:09:34;99713.09;;;4.42;94.03
30598;BME280;17365;48.878;8.334;2023-04-21T00:11:59;99709.19;;;4.60;92.01
30598;BME280;17365;48.878;8.334;2023-04-21T00:14:25;99708.97;;;4.50;91.44
30598;BME280;17365;48.878;8.334;2023-04-21T00:16:50;99709.53;;;4.33;91.41
30598;BME280;17365;48.878;8.334;2023-04-21T00:19:17;99711.28;;;4.36;92.24
30598;BME280;17365;48.878;8.334;2023-04-21T00:21:42;99721.31;;;4.24;91.73
30598;BME280;17365;48.878;8.334;2023-04-21T00:24:07;99714.78;;;4.41;90.31
30598;BME280;17365;48.878;8.334;2023-04-21T00:26:32;99717.69;;;4.16;91.61
30598;BME280;17365;48.878;8.334;2023-04-21T00:28:58;99709.25;;;4.20;91.81
30598;BME280;17365;48.878;8.334;2023-04-21T00:31:23;99707.34;;;4.11;92.75
30598;BME280;17365;48.878;8.334;2023-04-21T00:33:48;99705.16;;;4.29;92.06
30598;BME280;17365;48.878;8.334;2023-04-21T00:36:13;99700.88;;;4.30;91.68
30598;BME280;17365;48.878;8.334;2023-04-21T00:38:38;99707.03;;;4.38;90.66
30598;BME280;17365;48.878;8.334;2023-04-21T00:41:04;99700.06;;;4.31;91.09
30598;BME280;17365;48.878;8.334;2023-04-21T00:43:29;99698.59;;;4.42;90.70
30598;BME280;17365;48.878;8.334;2023-04-21T00:45:54;99700.16;;;3.95;92.39
30598;BME280;17365;48.878;8.334;2023-04-21T00:48:20;99697.84;;;4.07;92.68
30598;BME280;17365;48.878;8.334;2023-04-21T00:50:45;99703.78;;;4.04;93.34
30598;BME280;17365;48.878;8.334;2023-04-21T00:53:10;99691.72;;;4.00;92.62
30598;BME280;17365;48.878;8.334;2023-04-21T00:55:36;99680.94;;;3.76;94.95
30598;BME280;17365;48.878;8.334;2023-04-21T00:58:02;99675.53;;;4.03;93.18
30598;BME280;17365;48.878;8.334;2023-04-21T01:00:27;99680.31;;;3.86;94.44
30598;BME280;17365;48.878;8.334;2023-04-21T01:02:53;99681.72;;;3.73;93.51
30598;BME280;17365;48.878;8.334;2023-04-21T01:05:18;99688.19;;;3.95;93.87
30598;BME280;17365;48.878;8.334;2023-04-21T01:07:43;99678.06;;;4.01;93.41
30598;BME280;17365;48.878;8.334;2023-04-21T01:10:09;99676.53;;;4.09;90.96
30598;BME280;17365;48.878;8.334;2023-04-21T01:12:44;99671.13;;;3.97;91.94
30598;BME280;17365;48.878;8.334;2023-04-21T01:15:10;99684.16;;;3.67;93.68
30598;BME280;17365;48.878;8.334;2023-04-21T01:17:36;99676.13;;;3.91;93.00
30598;BME280;17365;48.878;8.334;2023-04-21T01:20:02;99676.78;;;3.43;94.87
30598;BME280;17365;48.878;8.334;2023-04-21T01:22:30;99665.75;;;3.85;93.58
30598;BME280;17365;48.878;8.334;2023-04-21T01:24:55;99674.88;;;3.36;95.90
30598;BME280;17365;48.878;8.334;2023-04-21T01:27:20;99667.47;;;3.48;96.37
30598;BME280;17365;48.878;8.334;2023-04-21T01:29:47;99672.13;;;3.65;95.47
30598;BME280;17365;48.878;8.334;2023-04-21T01:32:15;99673.94;;;3.69;94.35
30598;BME280;17365;48.878;8.334;2023-04-21T01:34:41;99674.84;;;3.72;94.81
30598;BME280;17365;48.878;8.334;2023-04-21T01:37:07;99674.34;;;3.87;94.35
30598;BME280;17365;48.878;8.334;2023-04-21T01:39:33;99685.25;;;3.78;96.23
30598;BME280;17365;48.878;8.334;2023-04-21T01:42:01;99684.91;;;4.02;94.91
30598;BME280;17365;48.878;8.334;2023-04-21T01:44:26;99680.59;;;4.00;94.04
30598;BME280;17365;48.878;8.334;2023-04-21T01:46:52;99682.13;;;3.92;94.60
30598;BME280;17365;48.878;8.334;2023-04-21T01:49:17;99680.56;;;3.61;95.34
30598;BME280;17365;48.878;8.334;2023-04-21T01:51:42;99680.16;;;3.41;97.18
30598;BME280;17365;48.878;8.334;2023-04-21T01:54:07;99689.22;;;3.64;96.16
30598;BME280;17365;48.878;8.334;2023-04-21T01:56:33;99688.16;;;3.55;96.67
30598;BME280;17365;48.878;8.334;2023-04-21T01:58:58;99685.66;;;3.58;95.49
30598;BME280;17365;48.878;8.334;2023-04-21T02:01:23;99685.56;;;3.53;95.58
30598;BME280;17365;48.878;8.334;2023-04-21T02:03:49;99684.16;;;3.30;98.41
30598;BME280;17365;48.878;8.334;2023-04-21T02:06:14;99692.50;;;3.59;97.49
30598;BME280;17365;48.878;8.334;2023-04-21T02:08:39;99685.66;;;3.58;96.36
30598;BME280;17365;48.878;8.334;2023-04-21T02:11:04;99703.88;;;3.34;97.58
30598;BME280;17365;48.878;8.334;2023-04-21T02:13:29;99697.91;;;3.33;97.62
30598;BME280;17365;48.878;8.334;2023-04-21T02:15:55;99703.63;;;3.59;96.52
30598;BME280;17365;48.878;8.334;2023-04-21T02:18:20;99713.38;;;3.74;95.35
30598;BME280;17365;48.878;8.334;2023-04-21T02:20:45;99711.00;;;3.45;96.64
30598;BME280;17365;48.878;8.334;2023-04-21T02:23:11;99710.06;;;3.42;96.25
30598;BME280;17365;48.878;8.334;2023-04-21T02:25:36;99708.97;;;3.32;97.03
30598;BME280;17365;48.878;8.334;2023-04-21T02:28:01;99714.97;;;3.33;97.05
30598;BME280;17365;48.878;8.334;2023-04-21T02:30:26;99709.78;;;3.30;97.67
30598;BME280;17365;48.878;8.334;2023-04-21T02:32:52;99711.88;;;3.46;95.16
30598;BME280;17365;48.878;8.334;2023-04-21T02:35:17;99708.59;;;3.52;95.52
30598;BME280;17365;48.878;8.334;2023-04-21T02:37:45;99708.47;;;3.47;95.15
30598;BME280;17365;48.878;8.334;2023-04-21T02:40:10;99707.97;;;3.27;96.18
30598;BME280;17365;48.878;8.334;2023-04-21T02:42:35;99710.56;;;2.94;98.21
30598;BME280;17365;48.878;8.334;2023-04-21T02:45:00;99712.44;;;3.00;100.00
30598;BME280;17365;48.878;8.334;2023-04-21T02:47:26;99713.56;;;3.11;100.00
30598;BME280;17365;48.878;8.334;2023-04-21T02:49:51;99710.91;;;3.06;100.00
30598;BME280;17365;48.878;8.334;2023-04-21T02:52:16;99714.94;;;3.31;100.00
30598;BME280;17365;48.878;8.334;2023-04-21T02:54:41;99709.56;;;3.20;100.00
30598;BME280;17365;48.878;8.334;2023-04-21T02:57:06;99711.31;;;3.23;100.00
30598;BME280;17365;48.878;8.334;2023-04-21T02:59:32;99709.59;;;3.22;100.00
30598;BME280;17365;48.878;8.334;2023-04-21T03:01:57;99713.28;;;3.33;100.00
30598;BME280;17365;48.878;8.334;2023-04-21T03:04:22;99704.81;;;3.37;100.00
30598;BME280;17365;48.878;8.334;2023-04-21T03:06:49;99707.63;;;3.48;99.31
30598;BME280;17365;48.878;8.334;2023-04-21T03:09:14;99705.31;;;3.59;98.22
30598;BME280;17365;48.878;8.334;2023-04-21T03:11:40;99693.53;;;3.65;97.43
30598;BME280;17365;48.878;8.334;2023-04-21T03:14:05;99694.84;;;3.49;96.89
30598;BME280;17365;48.878;8.334;2023-04-21T03:16:30;99693.66;;;3.35;98.41
30598;BME280;17365;48.878;8.334;2023-04-21T03:18:56;99691.41;;;3.49;98.31
30598;BME280;17365;48.878;8.334;2023-04-21T03:21:21;99700.47;;;3.33;99.01
30598;BME280;17365;48.878;8.334;2023-04-21T03:23:46;99692.22;;;3.10;99.43
30598;BME280;17365;48.878;8.334;2023-04-21T03:26:11;99696.41;;;3.07;100.00
30598;BME280;17365;48.878;8.334;2023-04-21T03:28:36;99692.88;;;3.38;99.08
30598;BME280;17365;48.878;8.334;2023-04-21T03:31:02;99700.25;;;3.26;99.48
30598;BME280;17365;48.878;8.334;2023-04-21T03:33:27;99684.25;;;3.34;98.54
30598;BME280;17365;48.878;8.334;2023-04-21T03:35:52;99682.72;;;3.41;98.73
30598;BME280;17365;48.878;8.334;2023-04-21T03:38:17;99687.38;;;3.59;97.50
30598;BME280;17365;48.878;8.334;2023-04-21T03:40:42;99682.25;;;3.59;98.32
30598;BME280;17365;48.878;8.334;2023-04-21T03:43:08;99683.44;;;3.37;98.73
30598;BME280;17365;48.878;8.334;2023-04-21T03:45:33;99684.72;;;3.54;98.22
30598;BME280;17365;48.878;8.334;2023-04-21T03:47:59;99684.75;;;3.56;98.45
30598;BME280;17365;48.878;8.334;2023-04-21T03:50:24;99685.69;;;3.59;98.23
30598;BME280;17365;48.878;8.334;2023-04-21T03:52:50;99676.06;;;3.50;98.01
30598;BME280;17365;48.878;8.334;2023-04-21T03:55:17;99675.78;;;3.74;97.31
30598;BME280;17365;48.878;8.334;2023-04-21T03:57:42;99673.06;;;3.68;96.86
30598;BME280;17365;48.878;8.334;2023-04-21T04:00:08;99663.75;;;3.73;96.62
30598;BME280;17365;48.878;8.334;2023-04-21T04:02:36;99662.47;;;3.53;97.04
30598;BME280;17365;48.878;8.334;2023-04-21T04:05:02;99660.63;;;3.47;96.84
30598;BME280;17365;48.878;8.334;2023-04-21T04:07:28;99660.25;;;3.31;98.20
30598;BME280;17365;48.878;8.334;2023-04-21T04:09:53;99664.56;;;2.97;100.00
30598;BME280;17365;48.878;8.334;2023-04-21T04:12:18;99669.47;;;2.89;100.00
30598;BME280;17365;48.878;8.334;2023-04-21T04:14:43;99671.13;;;3.22;99.83
30598;BME280;17365;48.878;8.334;2023-04-21T04:17:09;99684.50;;;3.09;99.14
30598;BME280;17365;48.878;8.334;2023-04-21T04:19:34;99678.22;;;3.32;98.03
30598;BME280;17365;48.878;8.334;2023-04-21T04:21:59;99689.06;;;3.20;99.01
30598;BME280;17365;48.878;8.334;2023-04-21T04:24:25;99675.13;;;3.11;98.14
30598;BME280;17365;48.878;8.334;2023-04-21T04:26:56;99657.28;;;3.15;98.61
30598;BME280;17365;48.878;8.334;2023-04-21T04:29:23;99658.97;;;3.13;98.25
30598;BME280;17365;48.878;8.334;2023-04-21T04:31:49;99657.13;;;3.08;100.00
30598;BME280;17365;48.878;8.334;2023-04-21T04:34:15;99660.13;;;2.91;100.00
30598;BME280;17365;48.878;8.334;2023-04-21T04:36:40;99661.00;;;3.28;98.38
30598;BME280;17365;48.878;8.334;2023-04-21T04:39:06;99670.38;;;3.26;98.00
30598;BME280;17365;48.878;8.334;2023-04-21T04:41:32;99672.50;;;3.08;97.73
30598;BME280;17365;48.878;8.334;2023-04-21T04:43:57;99666.06;;;3.25;96.99
30598;BME280;17365;48.878;8.334;2023-04-21T04:46:23;99671.13;;;3.22;98.09
30598;BME280;17365;48.878;8.334;2023-04-21T04:48:49;99672.38;;;3.39;95.74
30598;BME280;17365;48.878;8.334;2023-04-21T04:51:14;99688.16;;;3.18;96.13
30598;BME280;17365;48.878;8.334;2023-04-21T04:53:40;99682.97;;;3.17;96.62
30598;BME280;17365;48.878;8.334;2023-04-21T04:56:06;99696.47;;;3.10;98.25
30598;BME280;17365;48.878;8.334;2023-04-21T04:58:31;99693.63;;;3.34;96.72
30598;BME280;17365;48.878;8.334;2023-04-21T05:00:56;99697.88;;;2.97;98.31
30598;BME280;17365;48.878;8.334;2023-04-21T05:03:21;99701.53;;;2.74;100.00
30598;BME280;17365;48.878;8.334;2023-04-21T05:05:47;99704.03;;;3.05;98.17
30598;BME280;17365;48.878;8.334;2023-04-21T05:08:12;99710.19;;;3.12;98.45
30598;BME280;17365;48.878;8.334;2023-04-21T05:10:37;99708.66;;;3.18;97.99
30598;BME280;17365;48.878;8.334;2023-04-21T05:13:02;99711.28;;;3.21;96.90
30598;BME280;17365;48.878;8.334;2023-04-21T05:15:28;99708.28;;;3.05;96.90
30598;BME280;17365;48.878;8.334;2023-04-21T05:17:53;99713.13;;;3.27;96.17
30598;BME280;17365;48.878;8.334;2023-04-21T05:20:18;99712.72;;;3.46;95.22
30598;BME280;17365;48.878;8.334;2023-04-21T05:22:43;99716.81;;;3.38;95.36
30598;BME280;17365;48.878;8.334;2023-04-21T05:25:09;99718.97;;;3.21;95.57
30598;BME280;17365;48.878;8.334;2023-04-21T05:27:35;99723.09;;;3.51;94.67
30598;BME280;17365;48.878;8.334;2023-04-21T05:30:00;99722.16;;;3.47;94.55
30598;BME280;17365;48.878;8.334;2023-04-21T05:32:26;99716.38;;;3.56;94.27
30598;BME280;17365;48.878;8.334;2023-04-21T05:34:51;99724.72;;;3.47;94.29
30598;BME280;17365;48.878;8.334;2023-04-21T05:37:16;99722.91;;;3.42;94.17
30598;BME280;17365;48.878;8.334;2023-04-21T05:39:41;99724.13;;;3.23;95.07
30598;BME280;17365;48.878;8.334;2023-04-21T05:42:08;99730.44;;;3.37;95.14
30598;BME280;17365;48.878;8.334;2023-04-21T05:44:33;99723.25;;;3.57;95.07
30598;BME280;17365;48.878;8.334;2023-04-21T05:46:59;99729.69;;;3.40;94.06
30598;BME280;17365;48.878;8.334;2023-04-21T05:49:24;99725.97;;;3.63;93.67
30598;BME280;17365;48.878;8.334;2023-04-21T05:51:49;99736.03;;;3.56;94.32
30598;BME280;17365;48.878;8.334;2023-04-21T05:54:14;99743.59;;;3.51;94.25
30598;BME280;17365;48.878;8.334;2023-04-21T05:56:40;99738.06;;;3.69;94.11
30598;BME280;17365;48.878;8.334;2023-04-21T05:59:05;99742.13;;;3.61;93.88
30598;BME280;17365;48.878;8.334;2023-04-21T06:01:31;99725.91;;;3.62;94.87
30598;BME280;17365;48.878;8.334;2023-04-21T06:03:56;99736.56;;;3.42;94.94
30598;BME280;17365;48.878;8.334;2023-04-21T06:06:21;99732.31;;;3.79;94.36
30598;BME280;17365;48.878;8.334;2023-04-21T06:08:46;99742.25;;;3.65;93.67
30598;BME280;17365;48.878;8.334;2023-04-21T06:11:12;99738.78;;;3.63;94.04
30598;BME280;17365;48.878;8.334;2023-04-21T06:13:37;99735.22;;;3.58;95.41
30598;BME280;17365;48.878;8.334;2023-04-21T06:16:02;99727.44;;;3.91;94.44
30598;BME280;17365;48.878;8.334;2023-04-21T06:18:28;99726.28;;;4.16;93.52
30598;BME280;17365;48.878;8.334;2023-04-21T06:20:53;99727.78;;;4.47;92.18
30598;BME280;17365;48.878;8.334;2023-04-21T06:23:19;99721.00;;;4.51;91.81
30598;BME280;17365;48.878;8.334;2023-04-21T06:25:45;99719.22;;;4.47;93.40
30598;BME280;17365;48.878;8.334;2023-04-21T06:28:10;99715.75;;;4.90;92.46
30598;BME280;17365;48.878;8.334;2023-04-21T06:30:35;99719.25;;;4.95;90.86
30598;BME280;17365;48.878;8.334;2023-04-21T06:33:01;99720.88;;;5.40;89.96
30598;BME280;17365;48.878;8.334;2023-04-21T06:35:26;99731.38;;;5.53;89.24
30598;BME280;17365;48.878;8.334;2023-04-21T06:37:51;99720.34;;;5.61;89.30
30598;BME280;17365;48.878;8.334;2023-04-21T06:40:16;99716.25;;;5.72;89.01
30598;BME280;17365;48.878;8.334;2023-04-21T06:42:42;99710.69;;;5.44;88.95
30598;BME280;17365;48.878;8.334;2023-04-21T06:45:07;99723.97;;;5.73;88.54
30598;BME280;17365;48.878;8.334;2023-04-21T06:47:32;99715.06;;;5.51;88.89
30598;BME280;17365;48.878;8.334;2023-04-21T06:49:57;99712.31;;;5.41;90.13
30598;BME280;17365;48.878;8.334;2023-04-21T06:52:23;99714.28;;;5.55;89.75
30598;BME280;17365;48.878;8.334;2023-04-21T06:54:48;99718.13;;;5.85;89.77
30598;BME280;17365;48.878;8.334;2023-04-21T06:57:13;99706.44;;;6.05;88.88
30598;BME280;17365;48.878;8.334;2023-04-21T06:59:39;99710.38;;;5.80;89.21
30598;BME280;17365;48.878;8.334;2023-04-21T07:02:04;99712.13;;;5.30;90.92
30598;BME280;17365;48.878;8.334;2023-04-21T07:04:30;99708.53;;;5.73;89.46
30598;BME280;17365;48.878;8.334;2023-04-21T07:06:56;99703.94;;;6.11;89.53
30598;BME280;17365;48.878;8.334;2023-04-21T07:09:21;99706.97;;;6.47;87.83
30598;BME280;17365;48.878;8.334;2023-04-21T07:11:46;99710.16;;;6.26;87.03
30598;BME280;17365;48.878;8.334;2023-04-21T07:14:11;99702.16;;;6.77;87.57
30598;BME280;17365;48.878;8.334;2023-04-21T07:16:36;99698.06;;;6.99;85.28
30598;BME280;17365;48.878;8.334;2023-04-21T07:19:02;99699.91;;;7.12;85.61
30598;BME280;17365;48.878;8.334;2023-04-21T07:21:27;99695.59;;;7.11;84.39
30598;BME280;17365;48.878;8.334;2023-04-21T07:23:54;99695.47;;;6.97;85.31
30598;BME280;17365;48.878;8.334;2023-04-21T07:26:19;99691.38;;;7.19;85.86
30598;BME280;17365;48.878;8.334;2023-04-21T07:28:44;99684.84;;;7.63;84.46
30598;BME280;17365;48.878;8.334;2023-04-21T07:31:10;99678.63;;;7.38;84.18
30598;BME280;17365;48.878;8.334;2023-04-21T07:33:35;99682.97;;;7.43;82.70
30598;BME280;17365;48.878;8.334;2023-04-21T07:36:00;99690.81;;;7.57;83.54
30598;BME280;17365;48.878;8.334;2023-04-21T07:38:26;99691.34;;;7.15;84.41
30598;BME280;17365;48.878;8.334;2023-04-21T07:40:51;99684.44;;;7.12;85.82
30598;BME280;17365;48.878;8.334;2023-04-21T07:43:16;99681.41;;;7.68;85.02
30598;BME280;17365;48.878;8.334;2023-04-21T07:45:43;99677.16;;;7.72;84.37
30598;BME280;17365;48.878;8.334;2023-04-21T07:48:09;99679.25;;;8.41;82.88
30598;BME280;17365;48.878;8.334;2023-04-21T07:50:34;99679.31;;;8.69;80.98
30598;BME280;17365;48.878;8.334;2023-04-21T07:53:00;99669.78;;;8.39;81.39
30598;BME280;17365;48.878;8.334;2023-04-21T07:55:26;99674.97;;;8.51;81.38
30598;BME280;17365;48.878;8.334;2023-04-21T07:57:52;99674.03;;;8.35;81.63
30598;BME280;17365;48.878;8.334;2023-04-21T08:00:24;99671.53;;;8.55;82.90
30598;BME280;17365;48.878;8.334;2023-04-21T08:02:50;99675.06;;;8.85;81.39
30598;BME280;17365;48.878;8.334;2023-04-21T08:05:15;99676.78;;;8.90;80.48
30598;BME280;17365;48.878;8.334;2023-04-21T08:07:40;99673.34;;;8.96;80.52
30598;BME280;17365;48.878;8.334;2023-04-21T08:10:06;99667.31;;;9.37;80.18
30598;BME280;17365;48.878;8.334;2023-04-21T08:12:31;99661.25;;;9.50;78.69
30598;BME280;17365;48.878;8.334;2023-04-21T08:14:56;99656.00;;;9.91;78.27
30598;BME280;17365;48.878;8.334;2023-04-21T08:17:22;99652.53;;;9.84;78.08
30598;BME280;17365;48.878;8.334;2023-04-21T08:19:47;99648.16;;;10.11;77.58
30598;BME280;17365;48.878;8.334;2023-04-21T08:22:12;99641.31;;;9.84;78.95
30598;BME280;17365;48.878;8.334;2023-04-21T08:24:37;99639.59;;;9.92;79.22
30598;BME280;17365;48.878;8.334;2023-04-21T08:27:02;99637.69;;;10.40;78.88
30598;BME280;17365;48.878;8.334;2023-04-21T08:29:28;99632.47;;;10.46;78.37
30598;BME280;17365;48.878;8.334;2023-04-21T08:31:53;99632.38;;;10.60;77.64
30598;BME280;17365;48.878;8.334;2023-04-21T08:34:18;99622.88;;;10.65;78.01
30598;BME280;17365;48.878;8.334;2023-04-21T08:36:43;99617.75;;;10.48;77.65
30598;BME280;17365;48.878;8.334;2023-04-21T08:39:10;99620.06;;;10.94;77.30
30598;BME280;17365;48.878;8.334;2023-04-21T08:41:37;99622.50;;;11.14;75.44
30598;BME280;17365;48.878;8.334;2023-04-21T08:44:05;99618.00;;;11.29;73.52
30598;BME280;17365;48.878;8.334;2023-04-21T08:46:35;99609.22;;;11.43;72.90
30598;BME280;17365;48.878;8.334;2023-04-21T08:49:01;99618.63;;;11.57;72.58
30598;BME280;17365;48.878;8.334;2023-04-21T08:51:27;99608.25;;;11.56;71.89
30598;BME280;17365;48.878;8.334;2023-04-21T08:53:55;99599.22;;;11.92;71.14
30598;BME280;17365;48.878;8.334;2023-04-21T08:56:24;99597.28;;;12.08;70.87
30598;BME280;17365;48.878;8.334;2023-04-21T08:58:50;99598.19;;;12.05;69.55
30598;BME280;17365;48.878;8.334;2023-04-21T09:01:18;99595.34;;;12.25;69.38
30598;BME280;17365;48.878;8.334;2023-04-21T09:03:44;99588.13;;;12.44;68.60
30598;BME280;17365;48.878;8.334;2023-04-21T09:06:09;99569.97;;;12.41;68.32
30598;BME280;17365;48.878;8.334;2023-04-21T09:08:43;99570.44;;;12.67;68.77
30598;BME280;17365;48.878;8.334;2023-04-21T09:11:16;99573.91;;;12.66;68.01
30598;BME280;17365;48.878;8.334;2023-04-21T09:13:41;99564.19;;;12.77;68.04
30598;BME280;17365;48.878;8.334;2023-04-21T09:16:14;99559.81;;;12.81;67.78
30598;BME280;17365;48.878;8.334;2023-04-21T09:18:40;99563.09;;;12.91;67.57
30598;BME280;17365;48.878;8.334;2023-04-21T09:21:08;99553.22;;;13.11;67.32
30598;BME280;17365;48.878;8.334;2023-04-21T09:23:47;99563.75;;;13.05;66.00
30598;BME280;17365;48.878;8.334;2023-04-21T09:26:13;99556.66;;;13.15;66.07
30598;BME280;17365;48.878;8.334;2023-04-21T09:28:44;99550.22;;;13.37;65.72
30598;BME280;17365;48.878;8.334;2023-04-21T09:31:17;99541.59;;;13.32;64.92
30598;BME280;17365;48.878;8.334;2023-04-21T09:33:49;99547.19;;;13.57;64.78
30598;BME280;17365;48.878;8.334;2023-04-21T09:36:18;99533.91;;;13.69;64.77
30598;BME280;17365;48.878;8.334;2023-04-21T09:38:48;99541.94;;;14.02;63.72
30598;BME280;17365;48.878;8.334;2023-04-21T09:41:17;99532.47;;;13.97;63.54
30598;BME280;17365;48.878;8.334;2023-04-21T09:43:43;99531.78;;;13.89;63.82
30598;BME280;17365;48.878;8.334;2023-04-21T09:46:08;99529.94;;;13.94;62.47
30598;BME280;17365;48.878;8.334;2023-04-21T09:48:35;99517.44;;;14.09;62.70
30598;BME280;17365;48.878;8.334;2023-04-21T09:51:00;99514.53;;;14.22;62.70
30598;BME280;17365;48.878;8.334;2023-04-21T09:53:26;99525.13;;;14.16;61.81
30598;BME280;17365;48.878;8.334;2023-04-21T09:55:52;99525.63;;;14.32;62.20
30598;BME280;17365;48.878;8.334;2023-04-21T09:58:21;99527.91;;;14.47;61.38
30598;BME280;17365;48.878;8.334;2023-04-21T10:00:48;99526.44;;;14.73;61.74
30598;BME280;17365;48.878;8.334;2023-04-21T10:03:17;99523.78;;;14.74;61.17
30598;BME280;17365;48.878;8.334;2023-04-21T10:05:44;99527.59;;;14.97;59.48
30598;BME280;17365;48.878;8.334;2023-04-21T10:08:12;99519.13;;;14.87;59.83
30598;BME280;17365;48.878;8.334;2023-04-21T10:10:38;99508.94;;;15.10;59.89
30598;BME280;17365;48.878;8.334;2023-04-21T10:13:03;99508.25;;;15.02;59.38
30598;BME280;17365;48.878;8.334;2023-04-21T10:18:09;99505.41;;;15.11;59.48
30598;BME280;17365;48.878;8.334;2023-04-21T10:20:49;99494.06;;;15.12;58.61
30598;BME280;17365;48.878;8.334;2023-04-21T10:23:24;99489.59;;;15.18;57.58
30598;BME280;17365;48.878;8.334;2023-04-21T10:25:49;99490.06;;;15.32;57.69
30598;BME280;17365;48.878;8.334;2023-04-21T10:28:16;99489.97;;;15.35;58.00
30598;BME280;17365;48.878;8.334;2023-04-21T10:30:42;99478.88;;;15.58;57.49
30598;BME280;17365;48.878;8.334;2023-04-21T10:33:07;99478.50;;;15.71;56.69
30598;BME280;17365;48.878;8.334;2023-04-21T10:39:02;99476.63;;;15.77;55.86
30598;BME280;17365;48.878;8.334;2023-04-21T10:41:24;99473.06;;;15.79;54.98
30598;BME280;17365;48.878;8.334;2023-04-21T10:43:50;99474.88;;;16.05;55.84
30598;BME280;17365;48.878;8.334;2023-04-21T10:49:08;99461.63;;;16.11;55.82
30598;BME280;17365;48.878;8.334;2023-04-21T10:54:20;99456.19;;;16.17;55.01
30598;BME280;17365;48.878;8.334;2023-04-21T10:56:45;99448.44;;;16.14;55.15
30598;BME280;17365;48.878;8.334;2023-04-21T10:59:11;99458.16;;;16.11;55.79
30598;BME280;17365;48.878;8.334;2023-04-21T11:01:38;99450.34;;;16.09;56.31
30598;BME280;17365;48.878;8.334;2023-04-21T11:04:11;99435.31;;;16.42;55.86
30598;BME280;17365;48.878;8.334;2023-04-21T11:06:37;99441.16;;;16.50;55.32
30598;BME280;17365;48.878;8.334;2023-04-21T11:09:02;99437.66;;;16.23;55.03
30598;BME280;17365;48.878;8.334;2023-04-21T11:11:27;99433.56;;;16.43;55.24
30598;BME280;17365;48.878;8.334;2023-04-21T11:13:53;99439.59;;;16.45;55.69
30598;BME280;17365;48.878;8.334;2023-04-21T11:16:18;99429.34;;;16.64;55.44
30598;BME280;17365;48.878;8.334;2023-04-21T11:18:44;99428.06;;;16.50;55.64
30598;BME280;17365;48.878;8.334;2023-04-21T11:21:10;99431.47;;;16.52;56.02
30598;BME280;17365;48.878;8.334;2023-04-21T11:23:39;99435.44;;;16.64;55.59
30598;BME280;17365;48.878;8.334;2023-04-21T11:26:05;99431.16;;;16.62;55.75
30598;BME280;17365;48.878;8.334;2023-04-21T11:28:31;99422.25;;;16.94;53.94
30598;BME280;17365;48.878;8.334;2023-04-21T11:30:56;99422.03;;;17.00;53.75
30598;BME280;17365;48.878;8.334;2023-04-21T11:33:26;99417.16;;;17.14;52.37
30598;BME280;17365;48.878;8.334;2023-04-21T11:35:55;99424.78;;;17.20;51.91
30598;BME280;17365;48.878;8.334;2023-04-21T11:38:23;99416.31;;;17.37;50.45
30598;BME280;17365;48.878;8.334;2023-04-21T11:40:48;99420.00;;;17.55;50.82
30598;BME280;17365;48.878;8.334;2023-04-21T11:43:15;99409.03;;;17.45;52.59
30598;BME280;17365;48.878;8.334;2023-04-21T11:45:40;99398.78;;;17.61;50.12
30598;BME280;17365;48.878;8.334;2023-04-21T11:48:13;99392.91;;;17.78;50.96
30598;BME280;17365;48.878;8.334;2023-04-21T11:50:39;99389.28;;;17.58;48.74
30598;BME280;17365;48.878;8.334;2023-04-21T11:53:04;99391.06;;;17.58;49.54
30598;BME280;17365;48.878;8.334;2023-04-21T11:55:30;99390.00;;;17.62;48.99
30598;BME280;17365;48.878;8.334;2023-04-21T11:57:55;99380.34;;;17.86;49.13
30598;BME280;17365;48.878;8.334;2023-04-21T12:00:21;99370.56;;;17.91;51.22
30598;BME280;17365;48.878;8.334;2023-04-21T12:02:53;99366.75;;;17.98;51.88
30598;BME280;17365;48.878;8.334;2023-04-21T12:05:19;99371.34;;;17.93;52.31
30598;BME280;17365;48.878;8.334;2023-04-21T12:07:45;99362.84;;;18.08;52.39
30598;BME280;17365;48.878;8.334;2023-04-21T12:10:13;99364.06;;;17.99;52.29
30598;BME280;17365;48.878;8.334;2023-04-21T12:12:39;99367.94;;;18.11;50.70
30598;BME280;17365;48.878;8.334;2023-04-21T12:15:05;99366.56;;;18.24;50.76
30598;BME280;17365;48.878;8.334;2023-04-21T12:17:36;99370.03;;;18.25;51.76
30598;BME280;17365;48.878;8.334;2023-04-21T12:20:05;99360.88;;;18.13;51.54
30598;BME280;17365;48.878;8.334;2023-04-21T12:22:31;99363.06;;;18.24;50.71
30598;BME280;17365;48.878;8.334;2023-04-21T12:24:56;99374.44;;;18.24;51.21
30598;BME280;17365;48.878;8.334;2023-04-21T12:27:22;99354.47;;;18.41;50.48
30598;BME280;17365;48.878;8.334;2023-04-21T12:29:47;99363.66;;;18.73;50.61
30598;BME280;17365;48.878;8.334;2023-04-21T12:32:12;99375.03;;;18.51;48.84
30598;BME280;17365;48.878;8.334;2023-04-21T12:34:38;99369.41;;;18.60;51.05
30598;BME280;17365;48.878;8.334;2023-04-21T12:37:03;99348.84;;;18.50;51.65
30598;BME280;17365;48.878;8.334;2023-04-21T12:39:28;99359.63;;;18.22;52.83
30598;BME280;17365;48.878;8.334;2023-04-21T12:41:54;99372.34;;;17.89;53.10
30598;BME280;17365;48.878;8.334;2023-04-21T12:44:19;99346.56;;;17.78;53.65
30598;BME280;17365;48.878;8.334;2023-04-21T12:46:45;99348.16;;;17.59;53.80
30598;BME280;17365;48.878;8.334;2023-04-21T12:49:12;99343.81;;;17.81;53.42
30598;BME280;17365;48.878;8.334;2023-04-21T12:51:38;99353.47;;;17.57;54.22
30598;BME280;17365;48.878;8.334;2023-04-21T12:54:03;99348.88;;;17.40;54.99
30598;BME280;17365;48.878;8.334;2023-04-21T12:56:29;99349.97;;;17.35;54.96
30598;BME280;17365;48.878;8.334;2023-04-21T12:58:54;99348.19;;;17.35;55.14
30598;BME280;17365;48.878;8.334;2023-04-21T13:01:20;99348.06;;;17.38;55.20
30598;BME280;17365;48.878;8.334;2023-04-21T13:03:45;99356.72;;;17.40;54.49
30598;BME280;17365;48.878;8.334;2023-04-21T13:06:10;99355.59;;;17.48;54.00
30598;BME280;17365;48.878;8.334;2023-04-21T13:08:36;99355.13;;;17.60;53.74
30598;BME280;17365;48.878;8.334;2023-04-21T13:11:01;99352.66;;;17.55;53.92
30598;BME280;17365;48.878;8.334;2023-04-21T13:13:26;99346.41;;;17.59;54.23